TimeAKDT,TemperatureF,Dew PointF,Humidity,Sea Level PressureIn,VisibilityMPH,Wind Direction,Wind SpeedMPH,Gust SpeedMPH,PrecipitationIn,Events,Conditions,WindDirDegrees,DateUTC
12:55 AM,63.9,57.9,81,30.19,10.0,Variable,3.5,-,N/A,,Clear,0,2013-07-26 08:55:00
1:55 AM,64.4,58.6,82,30.19,10.0,Variable,3.5,-,N/A,,Clear,0,2013-07-26 09:55:00
2:55 AM,62.8,58.5,86,30.20,10.0,Calm,Calm,-,N/A,,Clear,0,2013-07-26 10:55:00
3:55 AM,60.3,57.6,91,30.20,10.0,Variable,1.2,-,N/A,,Clear,0,2013-07-26 11:55:00
4:55 AM,62.2,58.3,87,30.20,10.0,SSE,3.5,-,N/A,,Clear,160,2013-07-26 12:55:00
5:55 AM,61.7,57.4,86,30.20,10.0,South,2.3,-,N/A,,Clear,190,2013-07-26 13:55:00
6:55 AM,63.5,57.0,79,30.20,10.0,East,3.5,-,N/A,Thunderstorm,Thunderstorm,90,2013-07-26 14:55:00
7:55 AM,66.2,57.2,73,30.20,10.0,East,6.9,-,N/A,,Partly Cloudy,80,2013-07-26 15:55:00
8:55 AM,66.2,57.2,73,30.21,10.0,ENE,5.8,-,N/A,Thunderstorm,Partly Cloudy,70,2013-07-26 16:55:00
9:55 AM,64.4,59.0,83,30.22,10.0,North,1.2,-,N/A,,Partly Cloudy,350,2013-07-26 17:55:00
10:55 AM,62.6,59.0,88,30.22,10.0,NNW,3.5,-,N/A,Thunderstorm,Partly Cloudy,330,2013-07-26 18:55:00
11:55 AM,64.4,59.0,83,30.23,10.0,Variable,1.2,-,N/A,,Partly Cloudy,0,2013-07-26 19:55:00
12:55 PM,64.4,59.0,83,30.23,10.0,North,4.6,-,N/A,,Partly Cloudy,350,2013-07-26 20:55:00
1:55 PM,64.4,57.2,77,30.25,10.0,North,5.8,-,N/A,,Partly Cloudy,350,2013-07-26 21:55:00
2:55 PM,61.7,57.4,86,30.25,10.0,Variable,4.6,-,N/A,,Clear,0,2013-07-26 22:55:00
3:55 PM,63.1,57.7,83,30.26,10.0,North,4.6,-,N/A,,Clear,10,2013-07-26 23:55:00
4:55 PM,63.3,58.1,83,30.27,10.0,North,3.5,-,N/A,,Clear,350,2013-07-27 00:55:00
5:55 PM,64.2,57.7,79,30.26,10.0,North,4.6,-,N/A,,Clear,350,2013-07-27 01:55:00
6:55 PM,66.2,58.5,76,30.26,10.0,NNW,5.8,-,N/A,,Clear,330,2013-07-27 02:55:00
7:55 PM,66.0,58.3,76,30.26,10.0,NNW,4.6,-,N/A,,Clear,330,2013-07-27 03:55:00
8:55 PM,65.8,58.5,77,30.26,10.0,NNW,3.5,-,N/A,Thunderstorm,Clear,330,2013-07-27 04:55:00
9:55 PM,63.7,58.5,83,30.26,10.0,NNW,3.5,-,N/A,,Clear,340,2013-07-27 05:55:00
10:55 PM,61.9,57.2,85,30.28,10.0,Variable,1.2,-,N/A,,Clear,0,2013-07-27 06:55:00
11:55 PM,62.1,57.4,85,30.29,10.0,ENE,1.2,-,N/A,,Clear,60,2013-07-27 07:55:00